Terminal Aerodrome Forecast
Issued by NWS

Home | Current Version | Previous Version | Text Only | Print | Product List | Glossary On
Versions: 1 2 3 4 5 6 7 8 9 10 11 12 13 14
000
FTUS43 KGRB 011100
TAFMTW
TAF
KMTW 011139Z 0112/0212 34009KT P6SM SCT022 BKN035
      TEMPO 0112/0116 -SN BKN022
     FM011600 02007KT P6SM SCT022 BKN035
     FM011900 01005KT P6SM SCT025 SCT040
     FM012300 00000KT P6SM SKC
     FM020800 18004KT P6SM BKN150=

USA.gov is the U.S. government's official web portal to all federal, state and local government web resources and services.